sensor_id;sensor_type;location;lat;lon;timestamp;P1;durP1;ratioP1;P2;durP2;ratioP2
12585;SDS011;6358;50.760;0.282;2022-09-09T00:07:03;4.82;;;1.83;;
12585;SDS011;6358;50.760;0.282;2022-09-09T00:09:32;4.40;;;2.00;;
12585;SDS011;6358;50.760;0.282;2022-09-09T00:12:22;3.85;;;1.70;;
12585;SDS011;6358;50.760;0.282;2022-09-09T00:14:51;3.88;;;1.70;;
12585;SDS011;6358;50.760;0.282;2022-09-09T00:22:27;5.05;;;1.88;;
12585;SDS011;6358;50.760;0.282;2022-09-09T00:24:54;5.13;;;1.80;;
12585;SDS011;6358;50.760;0.282;2022-09-09T00:29:54;4.35;;;1.80;;
12585;SDS011;6358;50.760;0.282;2022-09-09T00:32:21;3.28;;;1.80;;
12585;SDS011;6358;50.760;0.282;2022-09-09T00:34:55;4.88;;;1.85;;
12585;SDS011;6358;50.760;0.282;2022-09-09T00:37:22;4.20;;;1.80;;
12585;SDS011;6358;50.760;0.282;2022-09-09T00:39:50;4.13;;;1.70;;
12585;SDS011;6358;50.760;0.282;2022-09-09T00:44:53;4.60;;;1.77;;
12585;SDS011;6358;50.760;0.282;2022-09-09T00:47:43;4.63;;;1.83;;
12585;SDS011;6358;50.760;0.282;2022-09-09T00:50:21;6.05;;;2.00;;
12585;SDS011;6358;50.760;0.282;2022-09-09T00:56:20;4.78;;;1.95;;
12585;SDS011;6358;50.760;0.282;2022-09-09T00:58:26;4.70;;;1.90;;
12585;SDS011;6358;50.760;0.282;2022-09-09T01:03:35;3.70;;;1.70;;
12585;SDS011;6358;50.760;0.282;2022-09-09T01:06:12;3.75;;;1.88;;
12585;SDS011;6358;50.760;0.282;2022-09-09T01:08:56;4.63;;;1.83;;
12585;SDS011;6358;50.760;0.282;2022-09-09T01:11:26;3.17;;;1.73;;
12585;SDS011;6358;50.760;0.282;2022-09-09T01:14:41;3.78;;;1.58;;
12585;SDS011;6358;50.760;0.282;2022-09-09T01:16:41;3.30;;;1.80;;
12585;SDS011;6358;50.760;0.282;2022-09-09T01:19:07;4.18;;;1.55;;
12585;SDS011;6358;50.760;0.282;2022-09-09T01:24:31;5.40;;;1.88;;
12585;SDS011;6358;50.760;0.282;2022-09-09T01:27:01;3.42;;;1.98;;
12585;SDS011;6358;50.760;0.282;2022-09-09T01:29:28;4.30;;;1.92;;
12585;SDS011;6358;50.760;0.282;2022-09-09T01:31:55;2.88;;;1.35;;
12585;SDS011;6358;50.760;0.282;2022-09-09T01:34:23;2.10;;;1.33;;
12585;SDS011;6358;50.760;0.282;2022-09-09T01:39:16;4.25;;;1.70;;
12585;SDS011;6358;50.760;0.282;2022-09-09T01:41:42;4.30;;;1.83;;
12585;SDS011;6358;50.760;0.282;2022-09-09T01:44:08;5.07;;;2.08;;
12585;SDS011;6358;50.760;0.282;2022-09-09T01:46:35;3.38;;;1.88;;
12585;SDS011;6358;50.760;0.282;2022-09-09T01:49:02;3.33;;;1.77;;
12585;SDS011;6358;50.760;0.282;2022-09-09T01:51:28;5.15;;;1.60;;
12585;SDS011;6358;50.760;0.282;2022-09-09T01:53:55;2.78;;;1.55;;
12585;SDS011;6358;50.760;0.282;2022-09-09T01:56:25;3.72;;;1.63;;
12585;SDS011;6358;50.760;0.282;2022-09-09T02:01:40;3.35;;;1.55;;
12585;SDS011;6358;50.760;0.282;2022-09-09T02:04:12;2.80;;;1.65;;
12585;SDS011;6358;50.760;0.282;2022-09-09T02:06:40;3.92;;;1.63;;
12585;SDS011;6358;50.760;0.282;2022-09-09T02:09:07;2.53;;;1.42;;
12585;SDS011;6358;50.760;0.282;2022-09-09T02:11:33;3.08;;;1.40;;
12585;SDS011;6358;50.760;0.282;2022-09-09T02:14:01;2.55;;;1.40;;
12585;SDS011;6358;50.760;0.282;2022-09-09T02:16:31;2.92;;;1.63;;
12585;SDS011;6358;50.760;0.282;2022-09-09T02:19:03;4.28;;;1.52;;
12585;SDS011;6358;50.760;0.282;2022-09-09T02:21:32;2.50;;;1.38;;
12585;SDS011;6358;50.760;0.282;2022-09-09T02:24:02;2.05;;;1.27;;
12585;SDS011;6358;50.760;0.282;2022-09-09T02:26:29;2.50;;;1.30;;
12585;SDS011;6358;50.760;0.282;2022-09-09T02:28:57;3.20;;;1.42;;
12585;SDS011;6358;50.760;0.282;2022-09-09T02:31:24;1.70;;;1.10;;
12585;SDS011;6358;50.760;0.282;2022-09-09T02:33:52;2.20;;;1.30;;
12585;SDS011;6358;50.760;0.282;2022-09-09T02:36:20;3.70;;;1.42;;
12585;SDS011;6358;50.760;0.282;2022-09-09T02:38:48;2.20;;;1.23;;
12585;SDS011;6358;50.760;0.282;2022-09-09T02:41:19;2.65;;;1.30;;
12585;SDS011;6358;50.760;0.282;2022-09-09T02:43:46;2.10;;;1.27;;
12585;SDS011;6358;50.760;0.282;2022-09-09T02:48:58;3.05;;;1.23;;
12585;SDS011;6358;50.760;0.282;2022-09-09T02:56:19;2.45;;;1.27;;
12585;SDS011;6358;50.760;0.282;2022-09-09T02:58:47;3.63;;;1.50;;
12585;SDS011;6358;50.760;0.282;2022-09-09T03:01:14;2.35;;;1.20;;
12585;SDS011;6358;50.760;0.282;2022-09-09T03:03:40;2.58;;;1.40;;
12585;SDS011;6358;50.760;0.282;2022-09-09T03:06:07;1.30;;;0.90;;
12585;SDS011;6358;50.760;0.282;2022-09-09T03:08:33;4.65;;;1.30;;
12585;SDS011;6358;50.760;0.282;2022-09-09T03:10:59;2.05;;;1.27;;
12585;SDS011;6358;50.760;0.282;2022-09-09T03:13:26;2.83;;;1.42;;
12585;SDS011;6358;50.760;0.282;2022-09-09T03:15:52;2.35;;;1.27;;
12585;SDS011;6358;50.760;0.282;2022-09-09T03:18:18;2.05;;;1.13;;
12585;SDS011;6358;50.760;0.282;2022-09-09T03:20:45;1.60;;;1.00;;
12585;SDS011;6358;50.760;0.282;2022-09-09T03:23:13;3.05;;;1.30;;
12585;SDS011;6358;50.760;0.282;2022-09-09T03:25:45;2.38;;;0.93;;
12585;SDS011;6358;50.760;0.282;2022-09-09T03:28:12;2.17;;;1.10;;
12585;SDS011;6358;50.760;0.282;2022-09-09T03:30:38;1.52;;;0.98;;
12585;SDS011;6358;50.760;0.282;2022-09-09T03:33:04;2.63;;;1.23;;
12585;SDS011;6358;50.760;0.282;2022-09-09T03:35:30;2.17;;;1.35;;
12585;SDS011;6358;50.760;0.282;2022-09-09T03:37:56;2.08;;;1.20;;
12585;SDS011;6358;50.760;0.282;2022-09-09T03:40:22;1.67;;;1.00;;
12585;SDS011;6358;50.760;0.282;2022-09-09T03:42:48;1.98;;;1.20;;
12585;SDS011;6358;50.760;0.282;2022-09-09T03:45:14;1.05;;;0.95;;
12585;SDS011;6358;50.760;0.282;2022-09-09T03:47:41;1.95;;;1.20;;
12585;SDS011;6358;50.760;0.282;2022-09-09T03:50:07;1.77;;;1.25;;
12585;SDS011;6358;50.760;0.282;2022-09-09T03:52:36;2.25;;;1.10;;
12585;SDS011;6358;50.760;0.282;2022-09-09T03:55:02;1.95;;;1.20;;
12585;SDS011;6358;50.760;0.282;2022-09-09T03:57:28;1.58;;;1.02;;
12585;SDS011;6358;50.760;0.282;2022-09-09T03:59:55;2.58;;;1.10;;
12585;SDS011;6358;50.760;0.282;2022-09-09T04:02:21;1.92;;;0.90;;
12585;SDS011;6358;50.760;0.282;2022-09-09T04:04:47;2.20;;;0.98;;
12585;SDS011;6358;50.760;0.282;2022-09-09T04:07:13;0.95;;;0.85;;
12585;SDS011;6358;50.760;0.282;2022-09-09T04:09:39;1.25;;;0.80;;
12585;SDS011;6358;50.760;0.282;2022-09-09T04:12:05;1.42;;;0.90;;
12585;SDS011;6358;50.760;0.282;2022-09-09T04:14:32;1.70;;;0.90;;
12585;SDS011;6358;50.760;0.282;2022-09-09T04:16:58;1.10;;;0.90;;
12585;SDS011;6358;50.760;0.282;2022-09-09T04:19:24;1.50;;;1.00;;
12585;SDS011;6358;50.760;0.282;2022-09-09T04:21:51;1.83;;;0.82;;
12585;SDS011;6358;50.760;0.282;2022-09-09T04:24:17;2.25;;;1.10;;
12585;SDS011;6358;50.760;0.282;2022-09-09T04:26:43;2.45;;;1.05;;
12585;SDS011;6358;50.760;0.282;2022-09-09T04:29:10;1.75;;;1.00;;
12585;SDS011;6358;50.760;0.282;2022-09-09T04:31:36;1.70;;;0.77;;
12585;SDS011;6358;50.760;0.282;2022-09-09T04:34:06;1.88;;;1.13;;
12585;SDS011;6358;50.760;0.282;2022-09-09T04:36:33;1.20;;;0.88;;
12585;SDS011;6358;50.760;0.282;2022-09-09T04:38:59;1.15;;;0.77;;
12585;SDS011;6358;50.760;0.282;2022-09-09T04:41:26;2.28;;;1.00;;
12585;SDS011;6358;50.760;0.282;2022-09-09T04:43:54;1.88;;;0.90;;
12585;SDS011;6358;50.760;0.282;2022-09-09T04:46:21;1.05;;;0.80;;
12585;SDS011;6358;50.760;0.282;2022-09-09T04:48:48;1.05;;;0.80;;
12585;SDS011;6358;50.760;0.282;2022-09-09T04:51:14;1.33;;;0.95;;
12585;SDS011;6358;50.760;0.282;2022-09-09T04:53:41;2.05;;;1.00;;
12585;SDS011;6358;50.760;0.282;2022-09-09T04:56:08;1.08;;;0.98;;
12585;SDS011;6358;50.760;0.282;2022-09-09T04:58:38;2.13;;;0.88;;
12585;SDS011;6358;50.760;0.282;2022-09-09T05:01:10;1.83;;;0.90;;
12585;SDS011;6358;50.760;0.282;2022-09-09T05:03:37;1.10;;;0.80;;
12585;SDS011;6358;50.760;0.282;2022-09-09T05:06:10;0.70;;;0.63;;
12585;SDS011;6358;50.760;0.282;2022-09-09T05:08:37;1.58;;;0.90;;
12585;SDS011;6358;50.760;0.282;2022-09-09T05:11:04;0.73;;;0.70;;
12585;SDS011;6358;50.760;0.282;2022-09-09T05:13:30;1.70;;;1.08;;
12585;SDS011;6358;50.760;0.282;2022-09-09T05:15:57;0.95;;;0.82;;
12585;SDS011;6358;50.760;0.282;2022-09-09T05:18:23;1.90;;;0.90;;
12585;SDS011;6358;50.760;0.282;2022-09-09T05:20:49;0.70;;;0.70;;
12585;SDS011;6358;50.760;0.282;2022-09-09T05:23:16;0.68;;;0.60;;
12585;SDS011;6358;50.760;0.282;2022-09-09T05:25:42;1.92;;;1.10;;
12585;SDS011;6358;50.760;0.282;2022-09-09T05:28:08;1.58;;;0.77;;
12585;SDS011;6358;50.760;0.282;2022-09-09T05:30:36;1.95;;;0.70;;
12585;SDS011;6358;50.760;0.282;2022-09-09T05:33:02;1.50;;;1.00;;
12585;SDS011;6358;50.760;0.282;2022-09-09T05:35:28;1.60;;;0.90;;
12585;SDS011;6358;50.760;0.282;2022-09-09T05:37:58;1.40;;;0.95;;
12585;SDS011;6358;50.760;0.282;2022-09-09T05:40:24;1.15;;;0.60;;
12585;SDS011;6358;50.760;0.282;2022-09-09T05:42:51;1.98;;;0.80;;
12585;SDS011;6358;50.760;0.282;2022-09-09T05:45:18;1.17;;;0.70;;
12585;SDS011;6358;50.760;0.282;2022-09-09T05:47:44;2.60;;;1.00;;
12585;SDS011;6358;50.760;0.282;2022-09-09T05:50:10;0.90;;;0.90;;
12585;SDS011;6358;50.760;0.282;2022-09-09T05:52:37;1.73;;;0.95;;
12585;SDS011;6358;50.760;0.282;2022-09-09T05:55:04;0.80;;;0.63;;
12585;SDS011;6358;50.760;0.282;2022-09-09T05:57:30;2.08;;;0.90;;
12585;SDS011;6358;50.760;0.282;2022-09-09T05:59:56;1.13;;;0.90;;
12585;SDS011;6358;50.760;0.282;2022-09-09T06:02:22;1.42;;;0.77;;
12585;SDS011;6358;50.760;0.282;2022-09-09T06:04:48;1.38;;;0.70;;
12585;SDS011;6358;50.760;0.282;2022-09-09T06:07:14;1.13;;;0.70;;
12585;SDS011;6358;50.760;0.282;2022-09-09T06:09:41;0.95;;;0.63;;
12585;SDS011;6358;50.760;0.282;2022-09-09T06:12:07;1.58;;;0.80;;
12585;SDS011;6358;50.760;0.282;2022-09-09T06:14:34;1.17;;;1.00;;
12585;SDS011;6358;50.760;0.282;2022-09-09T06:17:00;1.58;;;0.80;;
12585;SDS011;6358;50.760;0.282;2022-09-09T06:19:27;0.93;;;0.85;;
12585;SDS011;6358;50.760;0.282;2022-09-09T06:21:53;0.82;;;0.75;;
12585;SDS011;6358;50.760;0.282;2022-09-09T06:24:19;1.50;;;0.80;;
12585;SDS011;6358;50.760;0.282;2022-09-09T06:26:46;0.70;;;0.68;;
12585;SDS011;6358;50.760;0.282;2022-09-09T06:29:12;1.20;;;0.70;;
12585;SDS011;6358;50.760;0.282;2022-09-09T06:31:38;1.05;;;0.80;;
12585;SDS011;6358;50.760;0.282;2022-09-09T06:34:05;1.17;;;0.60;;
12585;SDS011;6358;50.760;0.282;2022-09-09T06:36:32;0.90;;;0.70;;
12585;SDS011;6358;50.760;0.282;2022-09-09T06:38:58;0.73;;;0.60;;
12585;SDS011;6358;50.760;0.282;2022-09-09T06:41:29;1.08;;;0.80;;
12585;SDS011;6358;50.760;0.282;2022-09-09T06:43:55;0.98;;;0.75;;
12585;SDS011;6358;50.760;0.282;2022-09-09T06:46:22;1.00;;;0.57;;
12585;SDS011;6358;50.760;0.282;2022-09-09T06:48:49;1.15;;;0.65;;
12585;SDS011;6358;50.760;0.282;2022-09-09T06:51:19;1.08;;;0.65;;
12585;SDS011;6358;50.760;0.282;2022-09-09T06:53:52;1.10;;;0.85;;
12585;SDS011;6358;50.760;0.282;2022-09-09T06:56:31;1.13;;;0.70;;
12585;SDS011;6358;50.760;0.282;2022-09-09T06:58:59;1.55;;;0.88;;
12585;SDS011;6358;50.760;0.282;2022-09-09T07:01:29;1.70;;;0.98;;
12585;SDS011;6358;50.760;0.282;2022-09-09T07:03:57;1.27;;;0.88;;
12585;SDS011;6358;50.760;0.282;2022-09-09T07:08:53;1.60;;;0.90;;
12585;SDS011;6358;50.760;0.282;2022-09-09T07:11:21;1.35;;;0.77;;
12585;SDS011;6358;50.760;0.282;2022-09-09T07:13:48;1.38;;;0.70;;
12585;SDS011;6358;50.760;0.282;2022-09-09T07:16:15;3.70;;;0.80;;
12585;SDS011;6358;50.760;0.282;2022-09-09T07:18:42;1.13;;;0.90;;
12585;SDS011;6358;50.760;0.282;2022-09-09T07:21:09;1.40;;;0.70;;
12585;SDS011;6358;50.760;0.282;2022-09-09T07:23:36;1.65;;;0.90;;
12585;SDS011;6358;50.760;0.282;2022-09-09T07:26:07;1.42;;;0.82;;
12585;SDS011;6358;50.760;0.282;2022-09-09T07:28:33;1.00;;;0.90;;
12585;SDS011;6358;50.760;0.282;2022-09-09T07:31:00;1.27;;;0.80;;
12585;SDS011;6358;50.760;0.282;2022-09-09T07:33:27;1.25;;;0.70;;
12585;SDS011;6358;50.760;0.282;2022-09-09T07:36:02;1.08;;;0.77;;
12585;SDS011;6358;50.760;0.282;2022-09-09T07:38:28;0.98;;;0.70;;
12585;SDS011;6358;50.760;0.282;2022-09-09T07:41:02;1.10;;;0.63;;
12585;SDS011;6358;50.760;0.282;2022-09-09T07:43:28;1.25;;;0.82;;
12585;SDS011;6358;50.760;0.282;2022-09-09T07:45:57;1.98;;;0.98;;
12585;SDS011;6358;50.760;0.282;2022-09-09T07:48:24;0.88;;;0.60;;
12585;SDS011;6358;50.760;0.282;2022-09-09T07:50:50;0.95;;;0.82;;
12585;SDS011;6358;50.760;0.282;2022-09-09T07:53:17;1.40;;;0.75;;
12585;SDS011;6358;50.760;0.282;2022-09-09T07:55:44;1.33;;;0.73;;
12585;SDS011;6358;50.760;0.282;2022-09-09T07:58:12;1.37;;;0.60;;
12585;SDS011;6358;50.760;0.282;2022-09-09T08:00:38;1.58;;;0.70;;
12585;SDS011;6358;50.760;0.282;2022-09-09T08:03:08;0.80;;;0.63;;
12585;SDS011;6358;50.760;0.282;2022-09-09T08:05:34;0.73;;;0.73;;
12585;SDS011;6358;50.760;0.282;2022-09-09T08:08:00;0.90;;;0.75;;
12585;SDS011;6358;50.760;0.282;2022-09-09T08:10:28;1.15;;;0.90;;
12585;SDS011;6358;50.760;0.282;2022-09-09T08:12:54;0.70;;;0.60;;
12585;SDS011;6358;50.760;0.282;2022-09-09T08:15:21;1.10;;;0.85;;
12585;SDS011;6358;50.760;0.282;2022-09-09T08:17:47;1.15;;;0.70;;
12585;SDS011;6358;50.760;0.282;2022-09-09T08:20:13;0.70;;;0.70;;
12585;SDS011;6358;50.760;0.282;2022-09-09T08:22:39;0.70;;;0.63;;
12585;SDS011;6358;50.760;0.282;2022-09-09T08:25:07;0.95;;;0.60;;
12585;SDS011;6358;50.760;0.282;2022-09-09T08:27:35;1.40;;;0.90;;
12585;SDS011;6358;50.760;0.282;2022-09-09T08:30:02;1.38;;;0.70;;
12585;SDS011;6358;50.760;0.282;2022-09-09T08:32:28;0.70;;;0.70;;
12585;SDS011;6358;50.760;0.282;2022-09-09T08:34:54;1.40;;;0.82;;
12585;SDS011;6358;50.760;0.282;2022-09-09T08:37:20;2.75;;;0.90;;
12585;SDS011;6358;50.760;0.282;2022-09-09T08:39:46;1.52;;;0.68;;
12585;SDS011;6358;50.760;0.282;2022-09-09T08:42:27;1.00;;;0.77;;
12585;SDS011;6358;50.760;0.282;2022-09-09T08:45:19;0.73;;;0.70;;
12585;SDS011;6358;50.760;0.282;2022-09-09T08:50:27;1.38;;;1.02;;
12585;SDS011;6358;50.760;0.282;2022-09-09T08:53:02;1.15;;;0.70;;
12585;SDS011;6358;50.760;0.282;2022-09-09T08:57:58;0.95;;;0.80;;
12585;SDS011;6358;50.760;0.282;2022-09-09T09:00:29;0.43;;;0.43;;
12585;SDS011;6358;50.760;0.282;2022-09-09T09:03:03;0.65;;;0.65;;
12585;SDS011;6358;50.760;0.282;2022-09-09T09:05:42;1.05;;;0.80;;
12585;SDS011;6358;50.760;0.282;2022-09-09T09:08:17;1.10;;;0.80;;
12585;SDS011;6358;50.760;0.282;2022-09-09T09:10:47;1.05;;;0.90;;
12585;SDS011;6358;50.760;0.282;2022-09-09T09:16:14;1.10;;;0.80;;
12585;SDS011;6358;50.760;0.282;2022-09-09T09:18:43;2.50;;;1.15;;
12585;SDS011;6358;50.760;0.282;2022-09-09T09:21:14;1.00;;;0.70;;
12585;SDS011;6358;50.760;0.282;2022-09-09T09:23:56;1.27;;;0.80;;
12585;SDS011;6358;50.760;0.282;2022-09-09T09:26:23;1.42;;;0.88;;
12585;SDS011;6358;50.760;0.282;2022-09-09T09:28:52;1.03;;;0.70;;
12585;SDS011;6358;50.760;0.282;2022-09-09T09:31:22;1.05;;;0.80;;
12585;SDS011;6358;50.760;0.282;2022-09-09T09:33:51;0.85;;;0.73;;
12585;SDS011;6358;50.760;0.282;2022-09-09T09:36:18;1.08;;;0.90;;
12585;SDS011;6358;50.760;0.282;2022-09-09T09:39:21;1.20;;;0.85;;
12585;SDS011;6358;50.760;0.282;2022-09-09T09:44:04;0.82;;;0.80;;
12585;SDS011;6358;50.760;0.282;2022-09-09T09:46:30;1.23;;;0.90;;
12585;SDS011;6358;50.760;0.282;2022-09-09T09:49:00;1.38;;;0.90;;
12585;SDS011;6358;50.760;0.282;2022-09-09T09:51:27;0.73;;;0.73;;
12585;SDS011;6358;50.760;0.282;2022-09-09T09:53:56;2.58;;;0.90;;
12585;SDS011;6358;50.760;0.282;2022-09-09T09:56:30;1.27;;;0.90;;
12585;SDS011;6358;50.760;0.282;2022-09-09T09:58:57;1.23;;;0.82;;
12585;SDS011;6358;50.760;0.282;2022-09-09T10:03:54;1.17;;;0.80;;
12585;SDS011;6358;50.760;0.282;2022-09-09T10:06:33;1.05;;;0.80;;
12585;SDS011;6358;50.760;0.282;2022-09-09T10:09:01;2.03;;;1.13;;
12585;SDS011;6358;50.760;0.282;2022-09-09T10:17:05;1.00;;;0.85;;
12585;SDS011;6358;50.760;0.282;2022-09-09T10:19:33;1.17;;;1.05;;
12585;SDS011;6358;50.760;0.282;2022-09-09T10:25:02;1.40;;;0.83;;
12585;SDS011;6358;50.760;0.282;2022-09-09T10:32:45;1.02;;;0.80;;
12585;SDS011;6358;50.760;0.282;2022-09-09T10:35:14;1.77;;;0.90;;
12585;SDS011;6358;50.760;0.282;2022-09-09T10:40:33;1.33;;;0.90;;
12585;SDS011;6358;50.760;0.282;2022-09-09T10:43:09;2.23;;;1.00;;
12585;SDS011;6358;50.760;0.282;2022-09-09T10:45:48;1.83;;;0.88;;
12585;SDS011;6358;50.760;0.282;2022-09-09T10:48:22;3.33;;;0.90;;
12585;SDS011;6358;50.760;0.282;2022-09-09T10:50:58;2.20;;;0.90;;
12585;SDS011;6358;50.760;0.282;2022-09-09T10:53:33;1.00;;;0.75;;
12585;SDS011;6358;50.760;0.282;2022-09-09T10:56:11;0.82;;;0.70;;
12585;SDS011;6358;50.760;0.282;2022-09-09T10:59:00;0.80;;;0.80;;
12585;SDS011;6358;50.760;0.282;2022-09-09T11:01:28;1.52;;;0.90;;
12585;SDS011;6358;50.760;0.282;2022-09-09T11:03:59;1.33;;;1.00;;
12585;SDS011;6358;50.760;0.282;2022-09-09T11:06:47;1.00;;;0.80;;
12585;SDS011;6358;50.760;0.282;2022-09-09T11:09:15;0.85;;;0.80;;
12585;SDS011;6358;50.760;0.282;2022-09-09T11:11:44;0.85;;;0.85;;
12585;SDS011;6358;50.760;0.282;2022-09-09T11:14:32;0.68;;;0.68;;
12585;SDS011;6358;50.760;0.282;2022-09-09T11:17:02;1.10;;;1.00;;
12585;SDS011;6358;50.760;0.282;2022-09-09T11:19:33;1.20;;;1.00;;
12585;SDS011;6358;50.760;0.282;2022-09-09T11:22:00;1.27;;;0.80;;
12585;SDS011;6358;50.760;0.282;2022-09-09T11:24:33;1.30;;;0.90;;
12585;SDS011;6358;50.760;0.282;2022-09-09T11:27:23;0.75;;;0.73;;
12585;SDS011;6358;50.760;0.282;2022-09-09T11:40:53;0.80;;;0.80;;
12585;SDS011;6358;50.760;0.282;2022-09-09T11:42:48;1.45;;;0.90;;
12585;SDS011;6358;50.760;0.282;2022-09-09T11:45:24;1.37;;;0.80;;
12585;SDS011;6358;50.760;0.282;2022-09-09T11:47:57;0.85;;;0.82;;
12585;SDS011;6358;50.760;0.282;2022-09-09T11:52:49;1.33;;;1.00;;
12585;SDS011;6358;50.760;0.282;2022-09-09T11:55:26;1.00;;;0.90;;
12585;SDS011;6358;50.760;0.282;2022-09-09T11:58:01;1.25;;;1.10;;
12585;SDS011;6358;50.760;0.282;2022-09-09T12:00:30;1.05;;;0.77;;
12585;SDS011;6358;50.760;0.282;2022-09-09T12:02:58;0.50;;;0.45;;
12585;SDS011;6358;50.760;0.282;2022-09-09T12:05:24;0.98;;;0.90;;
12585;SDS011;6358;50.760;0.282;2022-09-09T12:08:01;1.67;;;0.82;;
12585;SDS011;6358;50.760;0.282;2022-09-09T12:10:32;1.30;;;0.90;;
12585;SDS011;6358;50.760;0.282;2022-09-09T12:16:02;1.23;;;0.80;;
12585;SDS011;6358;50.760;0.282;2022-09-09T12:18:37;1.08;;;0.80;;
12585;SDS011;6358;50.760;0.282;2022-09-09T12:21:11;1.38;;;0.85;;
12585;SDS011;6358;50.760;0.282;2022-09-09T12:23:42;1.58;;;0.90;;
12585;SDS011;6358;50.760;0.282;2022-09-09T12:28:52;1.05;;;0.95;;
12585;SDS011;6358;50.760;0.282;2022-09-09T12:31:31;1.33;;;0.98;;
12585;SDS011;6358;50.760;0.282;2022-09-09T12:36:54;0.95;;;0.80;;
12585;SDS011;6358;50.760;0.282;2022-09-09T12:39:30;1.13;;;0.90;;
12585;SDS011;6358;50.760;0.282;2022-09-09T12:41:58;0.90;;;0.85;;
12585;SDS011;6358;50.760;0.282;2022-09-09T12:44:25;0.88;;;0.80;;
12585;SDS011;6358;50.760;0.282;2022-09-09T12:46:54;1.00;;;0.90;;
12585;SDS011;6358;50.760;0.282;2022-09-09T12:49:32;0.80;;;0.80;;
12585;SDS011;6358;50.760;0.282;2022-09-09T12:52:01;1.50;;;0.90;;
12585;SDS011;6358;50.760;0.282;2022-09-09T12:54:28;1.00;;;0.90;;
12585;SDS011;6358;50.760;0.282;2022-09-09T12:56:54;0.88;;;0.85;;
12585;SDS011;6358;50.760;0.282;2022-09-09T12:59:24;1.48;;;0.90;;
12585;SDS011;6358;50.760;0.282;2022-09-09T13:01:57;1.63;;;0.77;;
12585;SDS011;6358;50.760;0.282;2022-09-09T13:04:23;1.23;;;0.82;;
12585;SDS011;6358;50.760;0.282;2022-09-09T13:06:50;1.25;;;1.00;;
12585;SDS011;6358;50.760;0.282;2022-09-09T13:09:17;1.80;;;0.90;;
12585;SDS011;6358;50.760;0.282;2022-09-09T13:11:48;1.05;;;0.73;;
12585;SDS011;6358;50.760;0.282;2022-09-09T13:14:19;1.75;;;1.00;;
12585;SDS011;6358;50.760;0.282;2022-09-09T13:16:57;1.70;;;1.00;;
12585;SDS011;6358;50.760;0.282;2022-09-09T13:19:24;1.55;;;1.00;;
12585;SDS011;6358;50.760;0.282;2022-09-09T13:21:52;1.25;;;1.00;;
12585;SDS011;6358;50.760;0.282;2022-09-09T13:24:30;1.80;;;0.90;;
12585;SDS011;6358;50.760;0.282;2022-09-09T13:26:57;0.93;;;0.77;;
12585;SDS011;6358;50.760;0.282;2022-09-09T13:29:23;1.20;;;0.90;;
12585;SDS011;6358;50.760;0.282;2022-09-09T13:31:49;1.27;;;0.90;;
12585;SDS011;6358;50.760;0.282;2022-09-09T13:34:30;0.75;;;0.75;;
12585;SDS011;6358;50.760;0.282;2022-09-09T13:37:06;0.77;;;0.77;;
12585;SDS011;6358;50.760;0.282;2022-09-09T13:39:50;1.15;;;0.90;;
12585;SDS011;6358;50.760;0.282;2022-09-09T13:42:25;1.40;;;0.88;;
12585;SDS011;6358;50.760;0.282;2022-09-09T13:44:52;2.03;;;0.83;;
12585;SDS011;6358;50.760;0.282;2022-09-09T13:47:18;1.23;;;0.80;;
12585;SDS011;6358;50.760;0.282;2022-09-09T13:49:45;0.88;;;0.88;;
12585;SDS011;6358;50.760;0.282;2022-09-09T13:52:12;1.38;;;0.90;;
12585;SDS011;6358;50.760;0.282;2022-09-09T13:54:39;1.45;;;0.77;;
12585;SDS011;6358;50.760;0.282;2022-09-09T13:57:12;1.20;;;0.80;;
12585;SDS011;6358;50.760;0.282;2022-09-09T13:59:40;1.45;;;0.88;;
12585;SDS011;6358;50.760;0.282;2022-09-09T14:02:06;1.60;;;0.90;;
12585;SDS011;6358;50.760;0.282;2022-09-09T14:04:33;1.15;;;0.70;;
12585;SDS011;6358;50.760;0.282;2022-09-09T14:07:00;0.93;;;0.70;;
12585;SDS011;6358;50.760;0.282;2022-09-09T14:09:26;1.10;;;0.77;;
12585;SDS011;6358;50.760;0.282;2022-09-09T14:11:52;0.85;;;0.65;;
12585;SDS011;6358;50.760;0.282;2022-09-09T14:14:20;1.30;;;0.88;;
12585;SDS011;6358;50.760;0.282;2022-09-09T14:16:46;1.02;;;0.90;;
12585;SDS011;6358;50.760;0.282;2022-09-09T14:19:12;1.10;;;0.80;;
12585;SDS011;6358;50.760;0.282;2022-09-09T14:21:39;1.30;;;0.70;;
12585;SDS011;6358;50.760;0.282;2022-09-09T14:24:05;1.33;;;0.82;;
12585;SDS011;6358;50.760;0.282;2022-09-09T14:26:32;1.05;;;0.65;;
12585;SDS011;6358;50.760;0.282;2022-09-09T14:28:58;0.65;;;0.60;;
12585;SDS011;6358;50.760;0.282;2022-09-09T14:31:26;0.95;;;0.77;;
12585;SDS011;6358;50.760;0.282;2022-09-09T14:33:52;1.00;;;0.85;;
12585;SDS011;6358;50.760;0.282;2022-09-09T14:36:18;1.20;;;0.82;;
12585;SDS011;6358;50.760;0.282;2022-09-09T14:38:44;1.05;;;0.73;;
12585;SDS011;6358;50.760;0.282;2022-09-09T14:41:11;0.67;;;0.67;;
12585;SDS011;6358;50.760;0.282;2022-09-09T14:43:38;1.17;;;1.02;;
12585;SDS011;6358;50.760;0.282;2022-09-09T14:46:05;2.08;;;1.05;;
12585;SDS011;6358;50.760;0.282;2022-09-09T14:48:31;0.73;;;0.73;;
12585;SDS011;6358;50.760;0.282;2022-09-09T14:51:04;1.05;;;0.80;;
12585;SDS011;6358;50.760;0.282;2022-09-09T14:53:30;1.50;;;0.85;;
12585;SDS011;6358;50.760;0.282;2022-09-09T14:56:03;1.40;;;0.80;;
12585;SDS011;6358;50.760;0.282;2022-09-09T14:58:32;1.15;;;0.88;;
12585;SDS011;6358;50.760;0.282;2022-09-09T15:01:02;1.10;;;0.73;;
12585;SDS011;6358;50.760;0.282;2022-09-09T15:03:29;0.80;;;0.80;;
12585;SDS011;6358;50.760;0.282;2022-09-09T15:05:55;1.27;;;0.70;;
12585;SDS011;6358;50.760;0.282;2022-09-09T15:08:23;0.85;;;0.60;;
12585;SDS011;6358;50.760;0.282;2022-09-09T15:10:49;0.70;;;0.70;;
12585;SDS011;6358;50.760;0.282;2022-09-09T15:13:15;0.73;;;0.73;;
12585;SDS011;6358;50.760;0.282;2022-09-09T15:15:45;1.15;;;0.88;;
12585;SDS011;6358;50.760;0.282;2022-09-09T15:18:11;0.68;;;0.68;;
12585;SDS011;6358;50.760;0.282;2022-09-09T15:20:37;3.03;;;0.88;;
12585;SDS011;6358;50.760;0.282;2022-09-09T15:23:03;0.80;;;0.80;;
12585;SDS011;6358;50.760;0.282;2022-09-09T15:25:30;0.82;;;0.75;;
12585;SDS011;6358;50.760;0.282;2022-09-09T15:27:57;0.93;;;0.90;;
12585;SDS011;6358;50.760;0.282;2022-09-09T15:30:23;0.70;;;0.70;;
12585;SDS011;6358;50.760;0.282;2022-09-09T15:32:49;0.88;;;0.70;;
12585;SDS011;6358;50.760;0.282;2022-09-09T15:35:17;1.13;;;0.68;;
12585;SDS011;6358;50.760;0.282;2022-09-09T15:37:44;1.40;;;0.73;;
12585;SDS011;6358;50.760;0.282;2022-09-09T15:40:11;1.63;;;0.82;;
12585;SDS011;6358;50.760;0.282;2022-09-09T15:42:37;1.20;;;0.80;;
12585;SDS011;6358;50.760;0.282;2022-09-09T15:45:03;0.95;;;0.80;;
12585;SDS011;6358;50.760;0.282;2022-09-09T15:47:30;1.02;;;0.77;;
12585;SDS011;6358;50.760;0.282;2022-09-09T15:50:00;1.42;;;0.80;;
12585;SDS011;6358;50.760;0.282;2022-09-09T15:52:26;0.95;;;0.80;;
12585;SDS011;6358;50.760;0.282;2022-09-09T15:54:52;1.75;;;1.05;;
12585;SDS011;6358;50.760;0.282;2022-09-09T15:57:19;0.75;;;0.73;;
12585;SDS011;6358;50.760;0.282;2022-09-09T15:59:45;1.38;;;0.85;;
12585;SDS011;6358;50.760;0.282;2022-09-09T16:02:11;1.50;;;0.73;;
12585;SDS011;6358;50.760;0.282;2022-09-09T16:04:37;1.88;;;0.70;;
12585;SDS011;6358;50.760;0.282;2022-09-09T16:07:04;1.38;;;0.65;;
12585;SDS011;6358;50.760;0.282;2022-09-09T16:09:30;0.70;;;0.70;;
12585;SDS011;6358;50.760;0.282;2022-09-09T16:11:57;1.60;;;0.90;;
12585;SDS011;6358;50.760;0.282;2022-09-09T16:14:25;0.85;;;0.63;;
12585;SDS011;6358;50.760;0.282;2022-09-09T16:16:52;1.27;;;0.68;;
12585;SDS011;6358;50.760;0.282;2022-09-09T16:19:18;1.52;;;1.00;;
12585;SDS011;6358;50.760;0.282;2022-09-09T16:21:45;1.23;;;0.60;;
12585;SDS011;6358;50.760;0.282;2022-09-09T16:24:13;0.63;;;0.60;;
12585;SDS011;6358;50.760;0.282;2022-09-09T16:26:41;2.10;;;0.80;;
12585;SDS011;6358;50.760;0.282;2022-09-09T16:29:09;2.03;;;0.98;;
12585;SDS011;6358;50.760;0.282;2022-09-09T16:31:35;1.27;;;0.77;;
12585;SDS011;6358;50.760;0.282;2022-09-09T16:34:02;2.60;;;1.00;;
12585;SDS011;6358;50.760;0.282;2022-09-09T16:36:31;1.63;;;0.82;;
12585;SDS011;6358;50.760;0.282;2022-09-09T16:39:01;0.77;;;0.73;;
12585;SDS011;6358;50.760;0.282;2022-09-09T16:41:27;1.63;;;0.80;;